createdAt,value
2023-04-18T00:01:44.546Z,70.80
2023-04-18T00:04:13.732Z,71.16
2023-04-18T00:06:40.778Z,69.86
2023-04-18T00:09:07.435Z,70.79
2023-04-18T00:11:34.947Z,71.16
2023-04-18T00:14:03.284Z,71.71
2023-04-18T00:16:30.016Z,71.60
2023-04-18T00:18:57.222Z,70.25
2023-04-18T00:21:25.470Z,68.91
2023-04-18T00:23:52.080Z,69.25
2023-04-18T00:26:18.682Z,69.52
2023-04-18T00:28:45.432Z,69.21
2023-04-18T00:31:12.019Z,68.27
2023-04-18T00:33:38.598Z,66.54
2023-04-18T00:36:05.708Z,66.33
2023-04-18T00:38:32.272Z,67.77
2023-04-18T00:40:58.877Z,70.46
2023-04-18T00:43:25.631Z,69.80
2023-04-18T00:45:52.453Z,72.13
2023-04-18T00:48:19.061Z,70.89
2023-04-18T00:50:46.004Z,71.26
2023-04-18T00:53:13.509Z,71.78
2023-04-18T00:55:41.263Z,72.39
2023-04-18T00:58:08.442Z,73.60
2023-04-18T01:00:35.507Z,74.03
2023-04-18T01:03:02.245Z,73.57
2023-04-18T01:05:29.124Z,72.98
2023-04-18T01:08:00.925Z,72.50
2023-04-18T01:10:29.070Z,73.07
2023-04-18T01:13:16.605Z,72.42
2023-04-18T01:15:44.975Z,72.20
2023-04-18T01:18:13.344Z,71.94
2023-04-18T01:20:43.811Z,71.66
2023-04-18T01:23:10.592Z,71.80
2023-04-18T01:25:37.417Z,71.92
2023-04-18T01:28:04.668Z,73.59
2023-04-18T01:30:31.273Z,71.95
2023-04-18T01:32:57.902Z,71.96
2023-04-18T01:35:24.539Z,70.48
2023-04-18T01:37:51.376Z,70.29
2023-04-18T01:40:18.126Z,69.17
2023-04-18T01:42:44.806Z,68.30
2023-04-18T01:45:12.888Z,67.44
2023-04-18T01:47:39.760Z,67.08
2023-04-18T01:50:06.912Z,68.00
2023-04-18T01:52:33.828Z,68.55
2023-04-18T01:55:02.183Z,68.49
2023-04-18T01:57:28.997Z,68.54
2023-04-18T01:59:55.579Z,68.35
2023-04-18T02:02:22.427Z,68.67
2023-04-18T02:04:49.134Z,68.45
2023-04-18T02:07:15.748Z,67.99
2023-04-18T02:09:42.372Z,67.80
2023-04-18T02:12:09.146Z,68.04
2023-04-18T02:14:36.421Z,67.49
2023-04-18T02:17:03.097Z,67.32
2023-04-18T02:19:30.382Z,67.98
2023-04-18T02:21:56.994Z,67.28
2023-04-18T02:24:23.605Z,66.66
2023-04-18T02:26:50.200Z,67.38
2023-04-18T02:29:17.030Z,66.24
2023-04-18T02:31:43.616Z,66.25
2023-04-18T02:34:10.296Z,64.76
2023-04-18T02:36:36.928Z,64.69
2023-04-18T02:39:03.656Z,64.46
2023-04-18T02:41:30.231Z,63.82
2023-04-18T02:43:57.052Z,64.03
2023-04-18T02:46:25.009Z,63.45
2023-04-18T02:48:51.662Z,63.97
2023-04-18T02:51:19.966Z,63.68
2023-04-18T02:53:46.818Z,63.01
2023-04-18T02:56:17.137Z,63.39
2023-04-18T02:58:43.735Z,63.73
2023-04-18T03:01:10.621Z,64.26
2023-04-18T03:03:37.267Z,64.06
2023-04-18T03:06:04.105Z,64.85
2023-04-18T03:08:30.745Z,66.41
2023-04-18T03:10:57.367Z,67.19
2023-04-18T03:13:25.163Z,65.64
2023-04-18T03:15:51.892Z,66.89
2023-04-18T03:18:18.442Z,68.14
2023-04-18T03:20:45.167Z,68.03
2023-04-18T03:23:11.747Z,67.51
2023-04-18T03:25:38.452Z,67.26
2023-04-18T03:28:05.210Z,66.53
2023-04-18T03:30:32.516Z,65.17
2023-04-18T03:32:59.660Z,64.38
2023-04-18T03:35:26.297Z,63.78
2023-04-18T03:37:52.863Z,63.93
2023-04-18T03:40:19.540Z,64.10
2023-04-18T03:42:46.101Z,64.27
2023-04-18T03:45:12.764Z,65.12
2023-04-18T03:47:39.410Z,64.54
2023-04-18T03:50:06.460Z,64.63
2023-04-18T03:52:33.258Z,65.18
2023-04-18T03:54:59.874Z,64.77
2023-04-18T03:57:26.528Z,66.18
2023-04-18T03:59:53.163Z,67.47
2023-04-18T04:02:19.978Z,68.59
2023-04-18T04:04:47.069Z,68.56
2023-04-18T04:07:13.845Z,69.13
2023-04-18T04:09:40.432Z,68.91
2023-04-18T04:12:07.010Z,68.31
2023-04-18T04:14:33.585Z,67.88
2023-04-18T04:17:00.233Z,65.84
2023-04-18T04:19:26.772Z,66.04
2023-04-18T04:21:53.456Z,64.81
2023-04-18T04:24:22.629Z,64.90
2023-04-18T04:26:50.726Z,64.09
2023-04-18T04:29:17.778Z,64.23
2023-04-18T04:31:44.592Z,64.67
2023-04-18T04:34:11.274Z,64.52
2023-04-18T04:36:38.006Z,64.79
2023-04-18T04:39:05.313Z,64.98
2023-04-18T04:41:31.898Z,64.30
2023-04-18T04:43:59.685Z,63.68
2023-04-18T04:46:29.402Z,64.12
2023-04-18T04:48:56.558Z,64.45
2023-04-18T04:51:23.308Z,64.71
2023-04-18T04:53:49.921Z,63.82
2023-04-18T04:56:16.590Z,63.24
2023-04-18T04:58:43.235Z,63.17
2023-04-18T05:01:09.863Z,63.21
2023-04-18T05:03:36.666Z,63.20
2023-04-18T05:06:03.654Z,62.69
2023-04-18T05:08:30.442Z,62.52
2023-04-18T05:10:57.050Z,62.58
2023-04-18T05:13:23.650Z,61.89
2023-04-18T05:15:50.313Z,62.26
2023-04-18T05:18:16.917Z,61.90
2023-04-18T05:20:43.505Z,62.79
2023-04-18T05:23:10.293Z,62.04
2023-04-18T05:25:37.010Z,60.20
2023-04-18T05:28:08.333Z,60.04
2023-04-18T05:30:34.916Z,59.51
2023-04-18T05:33:01.543Z,58.61
2023-04-18T05:35:28.230Z,58.04
2023-04-18T05:37:54.808Z,57.86
2023-04-18T05:40:21.429Z,55.97
2023-04-18T05:42:48.209Z,55.39
2023-04-18T05:45:14.850Z,55.53
2023-04-18T05:47:41.537Z,55.37
2023-04-18T05:50:08.844Z,54.38
2023-04-18T05:52:37.034Z,53.16
2023-04-18T05:55:03.725Z,54.19
2023-04-18T05:57:30.993Z,54.17
2023-04-18T05:59:57.689Z,52.16
2023-04-18T06:02:24.413Z,50.08
2023-04-18T06:04:51.717Z,49.17
2023-04-18T06:07:18.540Z,51.46
2023-04-18T06:09:45.759Z,50.83
2023-04-18T06:12:12.353Z,50.64
2023-04-18T06:14:38.986Z,49.12
2023-04-18T06:17:07.267Z,53.82
2023-04-18T06:19:33.832Z,49.39
2023-04-18T06:22:01.387Z,53.89
2023-04-18T06:24:29.615Z,54.83
2023-04-18T06:26:57.561Z,53.78
2023-04-18T06:29:24.643Z,47.29
2023-04-18T06:31:52.137Z,53.64
2023-04-18T06:34:18.832Z,50.59
2023-04-18T06:36:45.544Z,54.70
2023-04-18T06:39:12.570Z,55.66
2023-04-18T06:41:39.132Z,55.07
2023-04-18T06:44:05.777Z,55.16
2023-04-18T06:46:33.139Z,53.87
2023-04-18T06:49:00.122Z,51.82
2023-04-18T06:51:27.449Z,54.93
2023-04-18T06:53:57.029Z,41.80
2023-04-18T06:56:23.689Z,47.88
2023-04-18T06:58:53.218Z,46.75
2023-04-18T07:01:20.122Z,52.04
2023-04-18T07:03:46.752Z,50.56
2023-04-18T07:06:13.459Z,49.88
2023-04-18T07:08:40.038Z,40.91
2023-04-18T07:11:06.856Z,45.82
2023-04-18T07:13:33.548Z,48.02
2023-04-18T07:16:01.366Z,49.63
2023-04-18T07:18:37.360Z,40.53
2023-04-18T07:21:07.838Z,42.32
2023-04-18T07:23:35.008Z,49.35
2023-04-18T07:26:02.889Z,49.46
2023-04-18T07:28:29.755Z,33.51
2023-04-18T07:30:57.061Z,38.24
2023-04-18T07:33:24.735Z,35.45
2023-04-18T07:35:52.819Z,30.37
2023-04-18T07:38:19.460Z,31.12
2023-04-18T07:40:46.059Z,34.69
2023-04-18T07:43:12.610Z,31.66
2023-04-18T07:45:39.301Z,34.98
2023-04-18T07:48:06.516Z,30.52
2023-04-18T07:50:33.108Z,31.35
2023-04-18T07:52:59.695Z,35.18
2023-04-18T07:55:26.311Z,39.53
2023-04-18T07:57:52.895Z,37.19
2023-04-18T08:00:19.746Z,30.60
2023-04-18T08:02:46.495Z,31.41
2023-04-18T08:05:13.489Z,36.15
2023-04-18T08:07:40.638Z,34.13
2023-04-18T08:10:07.707Z,38.40
2023-04-18T08:12:36.269Z,31.91
2023-04-18T08:15:03.714Z,29.85
2023-04-18T08:17:31.130Z,34.55
2023-04-18T08:19:57.823Z,34.04
2023-04-18T08:22:24.473Z,29.73
2023-04-18T08:25:03.821Z,30.64
2023-04-18T08:27:31.483Z,28.14
2023-04-18T08:29:58.317Z,34.03
2023-04-18T08:32:24.954Z,30.55
2023-04-18T08:34:51.581Z,33.71
2023-04-18T08:37:18.293Z,34.31
2023-04-18T08:39:45.114Z,28.80
2023-04-18T08:42:16.393Z,30.44
2023-04-18T08:44:43.329Z,31.55
2023-04-18T08:47:09.984Z,31.53
2023-04-18T08:49:36.590Z,32.07
2023-04-18T08:52:10.130Z,31.66
2023-04-18T08:54:38.678Z,28.73
2023-04-18T08:57:06.792Z,31.07
2023-04-18T08:59:35.614Z,26.65
2023-04-18T09:02:04.334Z,33.36
2023-04-18T09:04:45.399Z,26.36
2023-04-18T09:07:13.965Z,27.92
2023-04-18T09:09:51.696Z,27.15
2023-04-18T09:12:23.110Z,24.56
2023-04-18T09:14:51.583Z,30.42
2023-04-18T09:17:34.542Z,22.79
2023-04-18T09:20:06.240Z,31.03
2023-04-18T09:22:53.202Z,24.33
2023-04-18T09:25:39.743Z,26.04
2023-04-18T09:28:33.526Z,27.35
2023-04-18T09:31:15.448Z,26.79
2023-04-18T09:33:54.114Z,28.03
2023-04-18T09:36:27.428Z,29.73
2023-04-18T09:38:56.868Z,28.48
2023-04-18T09:41:24.318Z,25.97
2023-04-18T09:44:09.710Z,26.90
2023-04-18T09:46:38.278Z,28.61
2023-04-18T09:49:04.879Z,27.17
2023-04-18T09:51:33.343Z,28.79
2023-04-18T09:54:00.684Z,27.89
2023-04-18T09:56:29.705Z,27.97
2023-04-18T09:59:03.114Z,28.80
2023-04-18T10:01:29.859Z,26.46
2023-04-18T10:03:57.634Z,26.31
2023-04-18T10:06:27.452Z,27.72
2023-04-18T10:08:54.678Z,25.26
2023-04-18T10:11:22.057Z,23.18
2023-04-18T10:13:50.525Z,24.61
2023-04-18T10:16:18.248Z,28.01
2023-04-18T10:18:44.932Z,28.15
2023-04-18T10:21:11.604Z,28.66
2023-04-18T10:23:39.698Z,28.59
2023-04-18T10:26:10.741Z,27.63
2023-04-18T10:28:57.333Z,27.76
2023-04-18T10:31:28.542Z,26.14
2023-04-18T10:36:28.317Z,28.05
2023-04-18T10:39:20.049Z,27.70
2023-04-18T10:41:51.009Z,28.00
2023-04-18T10:44:23.006Z,28.58
2023-04-18T10:46:53.135Z,29.20
2023-04-18T10:49:26.410Z,28.67
2023-04-18T10:51:56.206Z,29.87
2023-04-18T10:54:28.940Z,28.67
2023-04-18T10:56:57.734Z,28.98
2023-04-18T10:59:26.700Z,29.43
2023-04-18T11:02:01.321Z,28.77
2023-04-18T11:04:28.507Z,28.13
2023-04-18T11:06:57.491Z,28.62
2023-04-18T11:09:24.583Z,28.20
2023-04-18T11:12:04.685Z,29.47
2023-04-18T11:14:44.944Z,29.74
2023-04-18T11:17:18.867Z,28.80
2023-04-18T11:19:46.123Z,29.36
2023-04-18T11:22:13.785Z,29.97
2023-04-18T11:24:40.468Z,30.20
2023-04-18T11:27:09.987Z,29.24
2023-04-18T11:29:36.974Z,29.97
2023-04-18T11:32:07.618Z,29.29
2023-04-18T11:34:35.641Z,30.29
2023-04-18T11:37:07.596Z,30.51
2023-04-18T11:39:43.770Z,28.53
2023-04-18T11:42:10.585Z,28.69
2023-04-18T11:44:39.852Z,28.42
2023-04-18T11:47:31.682Z,28.86
2023-04-18T11:50:03.917Z,28.61
2023-04-18T11:52:32.324Z,28.96
2023-04-18T11:55:19.619Z,27.72
2023-04-18T11:57:52.125Z,29.03
2023-04-18T12:00:22.000Z,29.42
2023-04-18T12:02:51.266Z,30.28
2023-04-18T12:05:36.997Z,29.13
2023-04-18T12:08:11.861Z,29.32
2023-04-18T12:10:46.310Z,29.48
2023-04-18T12:13:13.216Z,29.06
2023-04-18T12:15:42.306Z,29.03
2023-04-18T12:18:10.807Z,29.55
2023-04-18T12:20:38.842Z,28.57
2023-04-18T12:23:05.988Z,29.19
2023-04-18T12:25:32.881Z,29.49
2023-04-18T12:28:04.671Z,30.30
2023-04-18T12:30:36.031Z,29.52
2023-04-18T12:33:04.905Z,30.64
2023-04-18T12:35:32.436Z,29.19
2023-04-18T12:38:00.730Z,29.23
2023-04-18T12:40:30.071Z,29.25
2023-04-18T12:42:56.686Z,29.00
2023-04-18T12:45:23.774Z,28.61
2023-04-18T12:47:52.190Z,29.05
2023-04-18T12:50:21.228Z,30.37
2023-04-18T12:52:48.614Z,29.46
2023-04-18T12:55:15.798Z,29.70
2023-04-18T12:57:43.371Z,29.59
2023-04-18T13:00:11.296Z,30.00
2023-04-18T13:02:39.766Z,29.62
2023-04-18T13:05:10.933Z,28.97
2023-04-18T13:07:40.497Z,29.75
2023-04-18T13:10:12.009Z,31.13
2023-04-18T13:12:41.724Z,30.76
2023-04-18T13:15:09.767Z,30.21
2023-04-18T13:17:37.704Z,31.12
2023-04-18T13:20:10.696Z,31.37
2023-04-18T13:22:38.166Z,32.13
2023-04-18T13:25:05.829Z,32.53
2023-04-18T13:27:32.491Z,31.91
2023-04-18T13:29:59.245Z,31.90
2023-04-18T13:32:26.483Z,32.74
2023-04-18T13:34:53.223Z,32.67
2023-04-18T13:37:19.882Z,32.47
2023-04-18T13:39:46.599Z,33.21
2023-04-18T13:42:15.941Z,32.13
2023-04-18T13:44:42.896Z,32.63
2023-04-18T13:47:09.552Z,32.05
2023-04-18T13:49:36.527Z,31.64
2023-04-18T13:52:03.495Z,32.28
2023-04-18T13:54:31.962Z,32.30
2023-04-18T13:57:04.098Z,32.45
2023-04-18T13:59:31.910Z,31.90
2023-04-18T14:01:59.062Z,31.31
2023-04-18T14:04:27.039Z,31.27
2023-04-18T14:06:53.794Z,28.48
2023-04-18T14:09:20.539Z,29.60
2023-04-18T14:11:47.298Z,30.12
2023-04-18T14:14:14.079Z,31.26
2023-04-18T14:16:40.766Z,30.69
2023-04-18T14:19:07.644Z,30.45
2023-04-18T14:21:34.274Z,30.16
2023-04-18T14:24:00.934Z,29.76
2023-04-18T14:26:29.368Z,29.09
2023-04-18T14:28:56.542Z,29.43
2023-04-18T14:31:23.264Z,29.47
2023-04-18T14:33:49.916Z,29.02
2023-04-18T14:36:17.416Z,28.70
2023-04-18T14:38:48.486Z,29.90
2023-04-18T14:41:15.315Z,29.04
2023-04-18T14:43:41.942Z,30.63
2023-04-18T14:46:13.201Z,29.78
2023-04-18T14:48:39.973Z,30.40
2023-04-18T14:51:07.104Z,30.13
2023-04-18T14:53:34.121Z,30.24
2023-04-18T14:56:00.697Z,30.14
2023-04-18T14:58:27.283Z,30.33
2023-04-18T15:00:53.916Z,30.22
2023-04-18T15:03:20.802Z,30.14
2023-04-18T15:05:49.025Z,29.57
2023-04-18T15:08:16.301Z,30.69
2023-04-18T15:10:43.313Z,30.00
2023-04-18T15:13:11.142Z,31.02
2023-04-18T15:15:39.699Z,31.25
2023-04-18T15:18:06.943Z,31.84
2023-04-18T15:20:34.489Z,31.28
2023-04-18T15:23:01.728Z,32.20
2023-04-18T15:25:30.356Z,31.45
2023-04-18T15:27:58.260Z,31.20
2023-04-18T15:30:25.245Z,31.86
2023-04-18T15:32:52.234Z,32.17
2023-04-18T15:35:18.954Z,31.88
2023-04-18T15:37:45.748Z,31.38
2023-04-18T15:40:16.199Z,32.23
2023-04-18T15:42:43.741Z,32.28
2023-04-18T15:45:11.152Z,33.04
2023-04-18T15:47:38.851Z,33.80
2023-04-18T15:50:06.222Z,33.54
2023-04-18T15:52:32.912Z,33.83
2023-04-18T15:55:00.415Z,34.52
2023-04-18T15:57:29.300Z,34.57
2023-04-18T15:59:56.712Z,36.54
2023-04-18T16:02:23.338Z,37.38
2023-04-18T16:04:50.201Z,37.06
2023-04-18T16:07:16.926Z,37.29
2023-04-18T16:09:43.582Z,37.64
2023-04-18T16:12:10.252Z,36.44
2023-04-18T16:14:36.911Z,37.70
2023-04-18T16:17:03.748Z,37.35
2023-04-18T16:19:30.497Z,37.20
2023-04-18T16:21:57.529Z,37.51
2023-04-18T16:24:25.709Z,36.67
2023-04-18T16:26:53.652Z,37.17
2023-04-18T16:29:20.425Z,36.77
2023-04-18T16:31:47.838Z,37.42
2023-04-18T16:34:15.829Z,37.38
2023-04-18T16:36:42.791Z,37.40
2023-04-18T16:39:09.472Z,38.40
2023-04-18T16:41:36.118Z,37.12
2023-04-18T16:44:02.712Z,37.35
2023-04-18T16:46:32.279Z,38.20
2023-04-18T16:48:59.255Z,38.16
2023-04-18T16:51:26.468Z,37.94
2023-04-18T16:53:53.105Z,37.83
2023-04-18T16:56:19.685Z,38.26
2023-04-18T16:58:47.517Z,38.22
2023-04-18T17:01:14.225Z,38.02
2023-04-18T17:03:41.092Z,38.25
2023-04-18T17:06:07.784Z,38.47
2023-04-18T17:08:34.485Z,38.97
2023-04-18T17:11:02.309Z,38.61
2023-04-18T17:13:31.438Z,38.67
2023-04-18T17:15:58.213Z,39.70
2023-04-18T17:18:25.117Z,40.44
2023-04-18T17:20:52.518Z,40.34
2023-04-18T17:23:19.283Z,40.13
2023-04-18T17:25:46.297Z,40.06
2023-04-18T17:28:13.865Z,40.10
2023-04-18T17:30:44.260Z,39.78
2023-04-18T17:33:11.161Z,40.20
2023-04-18T17:35:41.401Z,40.87
2023-04-18T17:38:08.559Z,40.76
2023-04-18T17:40:35.334Z,41.71
2023-04-18T17:43:01.928Z,41.95
2023-04-18T17:45:28.512Z,42.15
2023-04-18T17:47:57.504Z,42.10
2023-04-18T17:50:24.198Z,42.66
2023-04-18T17:52:50.775Z,40.33
2023-04-18T17:55:17.376Z,43.14
2023-04-18T17:57:43.932Z,41.72
2023-04-18T18:00:11.970Z,43.42
2023-04-18T18:02:38.835Z,43.55
2023-04-18T18:05:06.085Z,41.75
2023-04-18T18:07:37.112Z,42.76
2023-04-18T18:10:04.940Z,43.25
2023-04-18T18:12:32.312Z,42.91
2023-04-18T18:14:59.108Z,41.44
2023-04-18T18:17:25.874Z,43.56
2023-04-18T18:19:52.557Z,41.96
2023-04-18T18:22:21.274Z,43.31
2023-04-18T18:24:47.778Z,45.69
2023-04-18T18:27:14.771Z,44.56
2023-04-18T18:29:41.390Z,43.10
2023-04-18T18:32:08.111Z,43.84
2023-04-18T18:34:34.854Z,45.51
2023-04-18T18:37:01.517Z,45.11
2023-04-18T18:39:28.114Z,44.68
2023-04-18T18:41:54.771Z,44.35
2023-04-18T18:44:21.483Z,47.05
2023-04-18T18:46:48.106Z,45.33
2023-04-18T18:49:15.037Z,46.36
2023-04-18T18:51:41.740Z,46.45
2023-04-18T18:54:08.393Z,47.59
2023-04-18T18:56:34.981Z,48.29
2023-04-18T18:59:01.609Z,48.99
2023-04-18T19:01:30.222Z,50.75
2023-04-18T19:03:56.985Z,49.59
2023-04-18T19:06:23.684Z,49.19
2023-04-18T19:08:50.331Z,51.30
2023-04-18T19:11:18.299Z,51.05
2023-04-18T19:13:45.152Z,52.01
2023-04-18T19:16:12.950Z,52.04
2023-04-18T19:18:53.055Z,49.24
2023-04-18T19:21:20.407Z,48.79
2023-04-18T19:23:47.047Z,51.75
2023-04-18T19:26:13.901Z,51.67
2023-04-18T19:29:06.109Z,51.16
2023-04-18T19:31:53.890Z,51.70
2023-04-18T19:34:22.288Z,50.97
2023-04-18T19:36:49.213Z,51.52
2023-04-18T19:39:16.581Z,49.71
2023-04-18T19:41:43.257Z,50.88
2023-04-18T19:44:09.853Z,51.68
2023-04-18T19:46:39.474Z,51.37
2023-04-18T19:49:06.279Z,51.44
2023-04-18T19:51:32.851Z,50.95
2023-04-18T19:53:59.587Z,51.92
2023-04-18T19:56:26.475Z,52.33
2023-04-18T19:58:53.326Z,51.28
2023-04-18T20:01:20.936Z,51.50
2023-04-18T20:03:48.194Z,52.43
2023-04-18T20:06:16.180Z,52.56
2023-04-18T20:08:43.188Z,51.46
2023-04-18T20:11:10.908Z,52.40
2023-04-18T20:13:38.295Z,52.88
2023-04-18T20:16:08.347Z,51.71
2023-04-18T20:18:39.439Z,53.77
2023-04-18T20:21:08.067Z,54.62
2023-04-18T20:23:35.551Z,54.24
2023-04-18T20:26:03.101Z,54.02
2023-04-18T20:28:31.255Z,54.75
2023-04-18T20:30:57.914Z,55.37
2023-04-18T20:33:24.569Z,55.69
2023-04-18T20:35:51.159Z,55.04
2023-04-18T20:38:17.750Z,54.83
2023-04-18T20:40:44.957Z,55.62
2023-04-18T20:43:13.585Z,55.91
2023-04-18T20:45:42.827Z,54.87
2023-04-18T20:48:09.778Z,56.80
2023-04-18T20:50:36.366Z,57.00
2023-04-18T20:53:04.010Z,55.25
2023-04-18T20:55:30.993Z,55.79
2023-04-18T20:57:58.667Z,56.19
2023-04-18T21:00:25.543Z,56.23
2023-04-18T21:02:52.288Z,57.20
2023-04-18T21:05:18.974Z,56.11
2023-04-18T21:07:45.927Z,57.53
2023-04-18T21:10:12.663Z,57.43
2023-04-18T21:12:39.317Z,57.19
2023-04-18T21:15:06.382Z,56.88
2023-04-18T21:17:32.995Z,58.02
2023-04-18T21:19:59.614Z,58.41
2023-04-18T21:22:26.296Z,57.35
2023-04-18T21:24:52.896Z,57.95
2023-04-18T21:27:19.530Z,58.99
2023-04-18T21:29:46.120Z,58.21
2023-04-18T21:32:12.789Z,58.10
2023-04-18T21:34:40.904Z,57.93
2023-04-18T21:37:07.558Z,58.22
2023-04-18T21:39:34.222Z,57.89
2023-04-18T21:42:01.865Z,57.47
2023-04-18T21:44:28.498Z,57.54
2023-04-18T21:46:56.585Z,57.62
2023-04-18T21:49:28.461Z,58.92
2023-04-18T21:51:56.690Z,57.06
2023-04-18T21:54:23.993Z,60.05
2023-04-18T21:56:50.583Z,59.28
2023-04-18T21:59:18.466Z,61.06
2023-04-18T22:01:45.399Z,61.82
2023-04-18T22:04:15.164Z,62.00
2023-04-18T22:06:43.876Z,63.07
2023-04-18T22:09:11.797Z,62.20
2023-04-18T22:11:38.430Z,61.27
2023-04-18T22:14:05.181Z,62.06
2023-04-18T22:16:33.403Z,61.39
2023-04-18T22:19:01.188Z,60.94
2023-04-18T22:21:27.874Z,62.26
2023-04-18T22:23:54.437Z,61.90
2023-04-18T22:26:21.041Z,63.23
2023-04-18T22:28:48.126Z,61.71
2023-04-18T22:31:14.820Z,61.35
2023-04-18T22:33:41.460Z,62.53
2023-04-18T22:36:08.256Z,63.20
2023-04-18T22:38:34.837Z,62.45
2023-04-18T22:41:01.391Z,63.25
2023-04-18T22:43:28.249Z,61.89
2023-04-18T22:45:54.977Z,62.08
2023-04-18T22:48:21.769Z,62.36
2023-04-18T22:50:49.901Z,62.30
2023-04-18T22:53:16.880Z,62.12
2023-04-18T22:55:44.583Z,60.57
2023-04-18T22:58:11.675Z,62.24
2023-04-18T23:00:38.296Z,61.33
2023-04-18T23:03:05.234Z,60.64
2023-04-18T23:05:32.145Z,59.84
2023-04-18T23:08:00.325Z,60.87
2023-04-18T23:10:27.416Z,60.42
2023-04-18T23:12:54.041Z,60.17
2023-04-18T23:15:22.798Z,59.55
2023-04-18T23:17:51.316Z,59.86
2023-04-18T23:20:17.960Z,59.72
2023-04-18T23:22:44.556Z,59.06
2023-04-18T23:25:11.123Z,58.69
2023-04-18T23:27:37.778Z,59.00
2023-04-18T23:30:04.816Z,59.82
2023-04-18T23:32:31.451Z,58.03
2023-04-18T23:34:58.239Z,58.82
2023-04-18T23:37:24.848Z,59.42
2023-04-18T23:39:51.651Z,58.43
2023-04-18T23:42:18.273Z,58.67
2023-04-18T23:44:45.119Z,59.51
2023-04-18T23:47:11.825Z,57.81
2023-04-18T23:49:38.509Z,59.73
2023-04-18T23:52:05.241Z,59.65
2023-04-18T23:54:31.803Z,59.51
2023-04-18T23:56:58.508Z,59.19
2023-04-18T23:59:25.112Z,58.14
